Time;durP1;ratioP1;P1;durP2;ratioP2;P2;SDS_P1;SDS_P2;PMS_P1;PMS_P2;Temp;Humidity;BMP_temperature;BMP_pressure;BME280_temperature;BME280_humidity;BME280_pressure;Samples;Min_cycle;Max_cycle;Signal;HPM_P1;HPM_P2
2020/03/26 00:00:55;;;;;;;13.1;10.25;;;;;;;-1.71;56.08691;95117.14;;;;
2020/03/26 00:02:26;;;;;;;15.25;9.000002;;;;;;;-1.87;55.60645;95080.1;;;;
2020/03/26 00:03:37;;;;;;;15.25;9.000002;;;;;;;-1.87;55.60645;95080.1;;;;
2020/03/26 00:04:47;;;;;;;13.45;9.199999;;;;;;;-1.85;55.94238;95072.02;;;;
2020/03/26 00:05:56;;;;;;;13.45;9.199999;;;;;;;-1.85;55.94238;95072.02;;;;
2020/03/26 00:07:04;;;;;;;13.45;9.199999;;;;;;;-1.85;55.94238;95072.02;;;;
2020/03/26 00:08:21;;;;;;;13.45;9.199999;;;;;;;-1.85;55.94238;95072.02;;;;
2020/03/26 00:09:37;;;;;;;13.45;9.199999;;;;;;;-1.85;55.94238;95072.02;;;;
2020/03/26 00:10:52;;;;;;;13.45;9.199999;;;;;;;-1.85;55.94238;95072.02;;;;
2020/03/26 00:11:56;;;;;;;13.45;9.199999;;;;;;;-1.85;55.94238;95072.02;;;;
2020/03/26 00:13:09;;;;;;;13.45;9.199999;;;;;;;-1.85;55.94238;95072.02;;;;
2020/03/26 00:14:26;;;;;;;13.45;9.199999;;;;;;;-1.85;55.94238;95072.02;;;;
2020/03/26 00:15:46;;;;;;;12.65;8.55;;;;;;;-1.98;55.33105;95066.3;;;;
2020/03/26 00:16:55;;;;;;;12.65;8.55;;;;;;;-1.98;55.33105;95066.3;;;;
2020/03/26 00:18:03;;;;;;;14.55;9.700001;;;;;;;-1.96;55.54199;95065.64;;;;
2020/03/26 00:19:44;;;;;;;14.55;9.700001;;;;;;;-1.96;55.54199;95065.64;;;;
2020/03/26 00:20:48;;;;;;;14.55;9.700001;;;;;;;-1.96;55.54199;95065.64;;;;
2020/03/26 00:22:00;;;;;;;14.55;9.700001;;;;;;;-1.96;55.54199;95065.64;;;;
2020/03/26 00:23:10;;;;;;;14.55;9.700001;;;;;;;-1.96;55.54199;95065.64;;;;
2020/03/26 00:24:25;;;;;;;14.55;9.700001;;;;;;;-1.96;55.54199;95065.64;;;;
2020/03/26 00:25:33;;;;;;;14.55;9.700001;;;;;;;-1.96;55.54199;95065.64;;;;
2020/03/26 00:26:58;;;;;;;14.55;9.700001;;;;;;;-1.96;55.54199;95065.64;;;;
2020/03/26 00:33:34;;;;;;;14.1;9.149999;;;;;;;-2.03;56.2334;95046.62;;;;
2020/03/26 00:34:37;;;;;;;14.1;9.149999;;;;;;;-2.03;56.2334;95046.62;;;;
2020/03/26 00:35:44;;;;;;;14.1;9.149999;;;;;;;-2.03;56.2334;95046.62;;;;
2020/03/26 00:37:23;;;;;;;14.1;9.149999;;;;;;;-2.03;56.2334;95046.62;;;;
2020/03/26 00:38:25;;;;;;;14.1;9.149999;;;;;;;-2.03;56.2334;95046.62;;;;
2020/03/26 00:39:28;;;;;;;14.1;9.149999;;;;;;;-2.03;56.2334;95046.62;;;;
2020/03/26 00:41:15;;;;;;;12.25;7.75;;;;;;;-2.11;55.83594;95020.2;;;;
2020/03/26 00:42:18;;;;;;;12.25;7.75;;;;;;;-2.11;55.83594;95020.2;;;;
2020/03/26 00:43:22;;;;;;;12.25;7.75;;;;;;;-2.11;55.83594;95020.2;;;;
2020/03/26 00:44:28;;;;;;;11.15;8.9;;;;;;;-2.07;56.4043;95021.11;;;;
2020/03/26 00:45:29;;;;;;;11.15;8.9;;;;;;;-2.07;56.4043;95021.11;;;;
2020/03/26 00:46:34;;;;;;;11.15;8.9;;;;;;;-2.07;56.4043;95021.11;;;;
2020/03/26 00:47:39;;;;;;;11.15;8.9;;;;;;;-2.07;56.4043;95021.11;;;;
2020/03/26 00:48:39;;;;;;;11.15;8.9;;;;;;;-2.07;56.4043;95021.11;;;;
2020/03/26 00:49:44;;;;;;;11.15;8.9;;;;;;;-2.07;56.4043;95021.11;;;;
2020/03/26 00:50:50;;;;;;;11.15;8.9;;;;;;;-2.07;56.4043;95021.11;;;;
2020/03/26 00:51:51;;;;;;;11.15;8.9;;;;;;;-2.07;56.4043;95021.11;;;;
2020/03/26 00:53:00;;;;;;;11.15;8.9;;;;;;;-2.07;56.4043;95021.11;;;;
2020/03/26 00:54:05;;;;;;;11.15;8.9;;;;;;;-2.07;56.4043;95021.11;;;;
2020/03/26 00:55:10;;;;;;;11.6;8.350001;;;;;;;-2.16;56.21484;95013.67;;;;
2020/03/26 00:56:15;;;;;;;11.6;8.350001;;;;;;;-2.16;56.21484;95013.67;;;;
2020/03/26 00:57:15;;;;;;;13.8;9.6;;;;;;;-2.14;56.52148;95012.98;;;;
2020/03/26 00:58:17;;;;;;;13.8;9.6;;;;;;;-2.14;56.52148;95012.98;;;;
2020/03/26 00:59:23;;;;;;;13.8;9.6;;;;;;;-2.14;56.52148;95012.98;;;;
2020/03/26 01:00:23;;;;;;;13.8;9.6;;;;;;;-2.14;56.52148;95012.98;;;;
2020/03/26 01:05:37;;;;;;;13.8;9.6;;;;;;;-2.14;56.52148;95012.98;;;;
2020/03/26 01:06:55;;;;;;;13.8;9.6;;;;;;;-2.14;56.52148;95012.98;;;;
2020/03/26 01:08:07;;;;;;;12.95;8.450001;;;;;;;-2.22;56.34277;95001.11;;;;
2020/03/26 01:09:16;;;;;;;12.95;8.450001;;;;;;;-2.22;56.34277;95001.11;;;;
2020/03/26 01:10:47;;;;;;;11.95;9.05;;;;;;;-2.2;56.68945;94997.81;;;;
2020/03/26 01:12:07;;;;;;;11.95;9.05;;;;;;;-2.2;56.68945;94997.81;;;;
2020/03/26 01:13:22;;;;;;;11.95;9.05;;;;;;;-2.2;56.68945;94997.81;;;;
2020/03/26 01:14:31;;;;;;;11.95;9.05;;;;;;;-2.2;56.68945;94997.81;;;;
2020/03/26 01:15:32;;;;;;;11.95;9.05;;;;;;;-2.2;56.68945;94997.81;;;;
2020/03/26 01:16:36;;;;;;;11.95;9.05;;;;;;;-2.2;56.68945;94997.81;;;;
2020/03/26 01:17:42;;;;;;;11.95;9.05;;;;;;;-2.2;56.68945;94997.81;;;;
2020/03/26 01:18:46;;;;;;;11.95;9.05;;;;;;;-2.2;56.68945;94997.81;;;;
2020/03/26 01:20:07;;;;;;;11.95;9.05;;;;;;;-2.2;56.68945;94997.81;;;;
2020/03/26 01:21:28;;;;;;;11;7.599999;;;;;;;-2.27;56.50391;94991.96;;;;
2020/03/26 01:22:34;;;;;;;11;7.599999;;;;;;;-2.27;56.50391;94991.96;;;;
2020/03/26 01:23:42;;;;;;;12.5;8.700001;;;;;;;-2.23;56.80176;94991.02;;;;
2020/03/26 01:24:49;;;;;;;12.5;8.700001;;;;;;;-2.23;56.80176;94991.02;;;;
2020/03/26 01:25:52;;;;;;;12.5;8.700001;;;;;;;-2.23;56.80176;94991.02;;;;
2020/03/26 01:27:00;;;;;;;12.5;8.700001;;;;;;;-2.23;56.80176;94991.02;;;;
2020/03/26 01:28:07;;;;;;;12.5;8.700001;;;;;;;-2.23;56.80176;94991.02;;;;
2020/03/26 01:29:17;;;;;;;12.5;8.700001;;;;;;;-2.23;56.80176;94991.02;;;;
2020/03/26 01:30:26;;;;;;;12.5;8.700001;;;;;;;-2.23;56.80176;94991.02;;;;
2020/03/26 01:31:37;;;;;;;12.5;8.700001;;;;;;;-2.23;56.80176;94991.02;;;;
2020/03/26 01:32:51;;;;;;;12.5;8.700001;;;;;;;-2.23;56.80176;94991.02;;;;
2020/03/26 01:33:57;;;;;;;12.5;8.700001;;;;;;;-2.23;56.80176;94991.02;;;;
2020/03/26 01:35:00;;;;;;;11.75;8;;;;;;;-2.28;56.55469;94981.03;;;;
2020/03/26 01:36:17;;;;;;;11.75;8;;;;;;;-2.28;56.55469;94981.03;;;;
2020/03/26 01:37:17;;;;;;;12.2;8;;;;;;;-2.24;56.78906;94977.97;;;;
2020/03/26 01:38:24;;;;;;;12.2;8;;;;;;;-2.24;56.78906;94977.97;;;;
2020/03/26 01:39:32;;;;;;;12.2;8;;;;;;;-2.24;56.78906;94977.97;;;;
2020/03/26 01:44:45;;;;;;;12.2;8;;;;;;;-2.24;56.78906;94977.97;;;;
2020/03/26 01:45:47;;;;;;;12.2;8;;;;;;;-2.24;56.78906;94977.97;;;;
2020/03/26 01:46:57;;;;;;;12.2;8;;;;;;;-2.24;56.78906;94977.97;;;;
2020/03/26 01:48:04;;;;;;;11.5;7.799999;;;;;;;-2.33;56.2666;94965.26;;;;
2020/03/26 01:49:10;;;;;;;11.5;7.799999;;;;;;;-2.33;56.2666;94965.26;;;;
2020/03/26 01:50:15;;;;;;;11.35;8.350001;;;;;;;-2.3;56.65625;94968.47;;;;
2020/03/26 01:51:23;;;;;;;11.35;8.350001;;;;;;;-2.3;56.65625;94968.47;;;;
2020/03/26 01:52:32;;;;;;;11.35;8.350001;;;;;;;-2.3;56.65625;94968.47;;;;
2020/03/26 01:53:36;;;;;;;11.35;8.350001;;;;;;;-2.3;56.65625;94968.47;;;;
2020/03/26 01:54:37;;;;;;;11.35;8.350001;;;;;;;-2.3;56.65625;94968.47;;;;
2020/03/26 01:55:40;;;;;;;11.35;8.350001;;;;;;;-2.3;56.65625;94968.47;;;;
2020/03/26 01:56:50;;;;;;;11.35;8.350001;;;;;;;-2.3;56.65625;94968.47;;;;
2020/03/26 01:57:52;;;;;;;11.35;8.350001;;;;;;;-2.3;56.65625;94968.47;;;;
2020/03/26 01:58:54;;;;;;;11.35;8.350001;;;;;;;-2.3;56.65625;94968.47;;;;
2020/03/26 01:59:56;;;;;;;11.35;8.350001;;;;;;;-2.3;56.65625;94968.47;;;;
2020/03/26 02:00:58;;;;;;;12.35;8.050001;;;;;;;-2.41;56.51563;94956.09;;;;
2020/03/26 02:06:17;;;;;;;12.35;8.050001;;;;;;;-2.41;56.51563;94956.09;;;;
2020/03/26 02:07:23;;;;;;;12.35;8.050001;;;;;;;-2.41;56.51563;94956.09;;;;
2020/03/26 02:08:39;;;;;;;12.35;8.050001;;;;;;;-2.41;56.51563;94956.09;;;;
2020/03/26 02:09:46;;;;;;;12.35;8.050001;;;;;;;-2.41;56.51563;94956.09;;;;
2020/03/26 02:15:06;;;;;;;11.7;7.749999;;;;;;;-2.44;56.38672;94953.77;;;;
2020/03/26 02:16:35;;;;;;;11.7;7.749999;;;;;;;-2.44;56.38672;94953.77;;;;
2020/03/26 02:17:57;;;;;;;11.7;7.749999;;;;;;;-2.44;56.38672;94953.77;;;;
2020/03/26 02:18:57;;;;;;;11.7;7.749999;;;;;;;-2.44;56.38672;94953.77;;;;
2020/03/26 02:20:00;;;;;;;11.7;7.749999;;;;;;;-2.44;56.38672;94953.77;;;;
2020/03/26 02:21:14;;;;;;;11.7;7.749999;;;;;;;-2.44;56.38672;94953.77;;;;
2020/03/26 02:22:25;;;;;;;10.55;7.5;;;;;;;-2.56;56.05762;94954.19;;;;
2020/03/26 02:23:30;;;;;;;10.55;7.5;;;;;;;-2.56;56.05762;94954.19;;;;
2020/03/26 02:24:38;;;;;;;10.15;7.800001;;;;;;;-2.52;56.4707;94949.71;;;;
2020/03/26 02:25:47;;;;;;;10.15;7.800001;;;;;;;-2.52;56.4707;94949.71;;;;
2020/03/26 02:27:02;;;;;;;10.15;7.800001;;;;;;;-2.52;56.4707;94949.71;;;;
2020/03/26 02:33:35;;;;;;;10.15;7.800001;;;;;;;-2.52;56.4707;94949.71;;;;
2020/03/26 02:34:43;;;;;;;10.15;7.800001;;;;;;;-2.52;56.4707;94949.71;;;;
2020/03/26 02:36:02;;;;;;;9.75;7.099999;;;;;;;-2.57;56.55762;94948.07;;;;
2020/03/26 02:37:03;;;;;;;9.75;7.099999;;;;;;;-2.57;56.55762;94948.07;;;;
2020/03/26 02:38:23;;;;;;;9.75;7.099999;;;;;;;-2.57;56.55762;94948.07;;;;
2020/03/26 02:39:30;;;;;;;9.75;7.099999;;;;;;;-2.57;56.55762;94948.07;;;;
2020/03/26 02:44:44;;;;;;;9.75;7.099999;;;;;;;-2.57;56.55762;94948.07;;;;
2020/03/26 02:45:47;;;;;;;11.65;7.349999;;;;;;;-2.59;56.69922;94955.43;;;;
2020/03/26 02:46:57;;;;;;;11.65;7.349999;;;;;;;-2.59;56.69922;94955.43;;;;
2020/03/26 02:47:59;;;;;;;11.65;7.349999;;;;;;;-2.59;56.69922;94955.43;;;;
2020/03/26 02:49:00;;;;;;;11.65;7.349999;;;;;;;-2.59;56.69922;94955.43;;;;
2020/03/26 02:50:04;;;;;;;11.65;7.349999;;;;;;;-2.59;56.69922;94955.43;;;;
2020/03/26 02:51:05;;;;;;;11.65;7.349999;;;;;;;-2.59;56.69922;94955.43;;;;
2020/03/26 02:52:12;;;;;;;11.65;7.349999;;;;;;;-2.59;56.69922;94955.43;;;;
2020/03/26 02:53:17;;;;;;;11.65;7.349999;;;;;;;-2.59;56.69922;94955.43;;;;
2020/03/26 02:54:32;;;;;;;11.65;7.349999;;;;;;;-2.59;56.69922;94955.43;;;;
2020/03/26 02:55:33;;;;;;;11.65;7.349999;;;;;;;-2.59;56.69922;94955.43;;;;
2020/03/26 02:56:34;;;;;;;12.15;7.450001;;;;;;;-2.67;56.47168;94946.09;;;;
2020/03/26 02:57:37;;;;;;;12.15;7.450001;;;;;;;-2.67;56.47168;94946.09;;;;
2020/03/26 02:58:38;;;;;;;12.15;7.450001;;;;;;;-2.67;56.47168;94946.09;;;;
2020/03/26 02:59:40;;;;;;;10.75;7.85;;;;;;;-2.62;56.64453;94941.14;;;;
2020/03/26 03:00:46;;;;;;;10.75;7.85;;;;;;;-2.62;56.64453;94941.14;;;;
2020/03/26 03:03:14;;;;;;;10.75;7.85;;;;;;;-2.62;56.64453;94941.14;;;;
2020/03/26 03:04:15;;;;;;;10.75;7.85;;;;;;;-2.62;56.64453;94941.14;;;;
2020/03/26 03:05:29;;;;;;;10.75;7.85;;;;;;;-2.62;56.64453;94941.14;;;;
2020/03/26 03:06:32;;;;;;;10.75;7.85;;;;;;;-2.62;56.64453;94941.14;;;;
2020/03/26 03:07:36;;;;;;;10.75;7.85;;;;;;;-2.62;56.64453;94941.14;;;;
2020/03/26 03:08:46;;;;;;;10.75;7.85;;;;;;;-2.62;56.64453;94941.14;;;;
2020/03/26 03:09:48;;;;;;;10.4;7.2;;;;;;;-2.66;56.39941;94947.74;;;;
2020/03/26 03:10:55;;;;;;;10.4;7.2;;;;;;;-2.66;56.39941;94947.74;;;;
2020/03/26 03:11:59;;;;;;;10.4;7.2;;;;;;;-2.66;56.39941;94947.74;;;;
2020/03/26 03:13:24;;;;;;;10.4;7.2;;;;;;;-2.66;56.39941;94947.74;;;;
2020/03/26 03:14:31;;;;;;;10.4;7.2;;;;;;;-2.66;56.39941;94947.74;;;;
2020/03/26 03:15:32;;;;;;;10.4;7.2;;;;;;;-2.66;56.39941;94947.74;;;;
2020/03/26 03:16:40;;;;;;;10.4;7.2;;;;;;;-2.66;56.39941;94947.74;;;;
2020/03/26 03:17:41;;;;;;;10.4;7.2;;;;;;;-2.66;56.39941;94947.74;;;;
2020/03/26 03:18:42;;;;;;;10.4;7.2;;;;;;;-2.66;56.39941;94947.74;;;;
2020/03/26 03:19:45;;;;;;;10.4;7.2;;;;;;;-2.66;56.39941;94947.74;;;;
2020/03/26 03:20:48;;;;;;;10.35;6.8;;;;;;;-2.7;56.35156;94952.62;;;;
2020/03/26 03:21:54;;;;;;;10.35;6.8;;;;;;;-2.7;56.35156;94952.62;;;;
2020/03/26 03:22:57;;;;;;;10.35;6.8;;;;;;;-2.7;56.35156;94952.62;;;;
2020/03/26 03:23:58;;;;;;;10.35;6.8;;;;;;;-2.7;56.35156;94952.62;;;;
2020/03/26 03:25:01;;;;;;;10.35;6.8;;;;;;;-2.7;56.35156;94952.62;;;;
2020/03/26 03:26:02;;;;;;;10.35;6.8;;;;;;;-2.7;56.35156;94952.62;;;;
2020/03/26 03:27:09;;;;;;;10.35;6.8;;;;;;;-2.7;56.35156;94952.62;;;;
2020/03/26 03:28:15;;;;;;;10.35;6.8;;;;;;;-2.7;56.35156;94952.62;;;;
2020/03/26 03:29:15;;;;;;;10.35;6.8;;;;;;;-2.7;56.35156;94952.62;;;;
2020/03/26 03:30:19;;;;;;;10.35;6.8;;;;;;;-2.7;56.35156;94952.62;;;;
2020/03/26 03:31:19;;;;;;;9.450001;6.650001;;;;;;;-2.82;56.04492;94948.14;;;;
2020/03/26 03:32:20;;;;;;;9.450001;6.650001;;;;;;;-2.82;56.04492;94948.14;;;;
2020/03/26 03:33:20;;;;;;;10.9;7.65;;;;;;;-2.79;56.42383;94954.02;;;;
2020/03/26 03:34:24;;;;;;;10.9;7.65;;;;;;;-2.79;56.42383;94954.02;;;;
2020/03/26 03:35:25;;;;;;;10.9;7.65;;;;;;;-2.79;56.42383;94954.02;;;;
2020/03/26 03:36:26;;;;;;;10.9;7.65;;;;;;;-2.79;56.42383;94954.02;;;;
2020/03/26 03:37:30;;;;;;;10.9;7.65;;;;;;;-2.79;56.42383;94954.02;;;;
2020/03/26 03:38:30;;;;;;;10.9;7.65;;;;;;;-2.79;56.42383;94954.02;;;;
2020/03/26 03:39:30;;;;;;;10.9;7.65;;;;;;;-2.79;56.42383;94954.02;;;;
2020/03/26 03:40:38;;;;;;;10.9;7.65;;;;;;;-2.79;56.42383;94954.02;;;;
2020/03/26 03:41:38;;;;;;;10.9;7.65;;;;;;;-2.79;56.42383;94954.02;;;;
2020/03/26 03:42:39;;;;;;;10.9;7.65;;;;;;;-2.79;56.42383;94954.02;;;;
2020/03/26 03:43:39;;;;;;;10.9;7.65;;;;;;;-2.79;56.42383;94954.02;;;;
2020/03/26 03:44:50;;;;;;;10.4;6.849999;;;;;;;-2.9;56.11816;94957.39;;;;
2020/03/26 03:45:51;;;;;;;10.4;6.849999;;;;;;;-2.9;56.11816;94957.39;;;;
2020/03/26 03:46:52;;;;;;;10.45;7.799999;;;;;;;-2.87;56.53711;94957.95;;;;
2020/03/26 03:47:56;;;;;;;10.45;7.799999;;;;;;;-2.87;56.53711;94957.95;;;;
2020/03/26 03:48:57;;;;;;;10.45;7.799999;;;;;;;-2.87;56.53711;94957.95;;;;
2020/03/26 03:49:57;;;;;;;10.45;7.799999;;;;;;;-2.87;56.53711;94957.95;;;;
2020/03/26 03:50:58;;;;;;;10.45;7.799999;;;;;;;-2.87;56.53711;94957.95;;;;
2020/03/26 03:51:59;;;;;;;10.45;7.799999;;;;;;;-2.87;56.53711;94957.95;;;;
2020/03/26 03:53:11;;;;;;;10.45;7.799999;;;;;;;-2.87;56.53711;94957.95;;;;
2020/03/26 03:54:12;;;;;;;10.45;7.799999;;;;;;;-2.87;56.53711;94957.95;;;;
2020/03/26 03:55:13;;;;;;;10.45;7.799999;;;;;;;-2.87;56.53711;94957.95;;;;
2020/03/26 03:56:14;;;;;;;10.45;7.799999;;;;;;;-2.87;56.53711;94957.95;;;;
2020/03/26 03:57:15;;;;;;;10.55;6.650001;;;;;;;-2.92;56.15723;94957.62;;;;
2020/03/26 03:58:15;;;;;;;10.55;6.650001;;;;;;;-2.92;56.15723;94957.62;;;;
2020/03/26 04:03:15;;;;;;;10.55;6.650001;;;;;;;-2.92;56.15723;94957.62;;;;
2020/03/26 04:08:16;;;;;;;9.65;6.45;;;;;;;-2.93;56.17578;94944.97;;;;
2020/03/26 04:13:16;;;;;;;9.65;6.45;;;;;;;-2.93;56.17578;94944.97;;;;
2020/03/26 04:18:16;;;;;;;10.7;7.6;;;;;;;-2.99;56.08496;94959.67;;;;
2020/03/26 04:23:17;;;;;;;10.7;7.6;;;;;;;-2.99;56.08496;94959.67;;;;
2020/03/26 04:28:17;;;;;;;10.7;7.6;;;;;;;-2.99;56.08496;94959.67;;;;
2020/03/26 04:33:17;;;;;;;10.75;7.1;;;;;;;-2.93;56.56152;94953.31;;;;
2020/03/26 04:38:18;;;;;;;10.75;7.1;;;;;;;-2.93;56.56152;94953.31;;;;
2020/03/26 04:43:19;;;;;;;11.65;7.700001;;;;;;;-2.96;56.42188;94960.74;;;;
2020/03/26 04:48:20;;;;;;;11.65;7.700001;;;;;;;-2.96;56.42188;94960.74;;;;
2020/03/26 04:53:20;;;;;;;11.9;7.699999;;;;;;;-2.89;56.83691;94965.69;;;;
2020/03/26 04:58:21;;;;;;;11.9;7.699999;;;;;;;-2.89;56.83691;94965.69;;;;
2020/03/26 05:03:21;;;;;;;11.4;7.3;;;;;;;-2.93;56.44824;94969.57;;;;
2020/03/26 05:08:21;;;;;;;11.4;7.3;;;;;;;-2.93;56.44824;94969.57;;;;
2020/03/26 05:13:22;;;;;;;12.25;7.55;;;;;;;-2.89;56.43066;94987.66;;;;
2020/03/26 05:18:22;;;;;;;12.25;7.55;;;;;;;-2.89;56.43066;94987.66;;;;
2020/03/26 05:23:22;;;;;;;10.45;7.500001;;;;;;;-2.92;56.26074;94991.53;;;;
2020/03/26 05:28:23;;;;;;;11.4;8.599999;;;;;;;-2.85;56.52051;94993.86;;;;
2020/03/26 05:33:23;;;;;;;11.4;8.599999;;;;;;;-2.85;56.52051;94993.86;;;;
2020/03/26 05:38:23;;;;;;;11.8;7.599999;;;;;;;-2.71;56.2666;95011.7;;;;
2020/03/26 05:43:24;;;;;;;11.8;7.599999;;;;;;;-2.71;56.2666;95011.7;;;;
2020/03/26 05:48:24;;;;;;;11.9;7.9;;;;;;;-2.47;55.77832;95012.66;;;;
2020/03/26 05:53:24;;;;;;;11.9;7.9;;;;;;;-2.47;55.77832;95012.66;;;;
2020/03/26 05:58:25;;;;;;;12.1;7.55;;;;;;;-2.24;55.55762;95018.53;;;;
2020/03/26 06:03:30;;;;;;;12.85;8.75;;;;;;;-2.12;55.81348;95022.42;;;;
2020/03/26 06:08:32;;;;;;;12.85;8.75;;;;;;;-2.12;55.81348;95022.42;;;;
2020/03/26 06:13:32;;;;;;;13.45;8.4;;;;;;;-1.61;56.4248;95015.92;;;;
2020/03/26 06:18:33;;;;;;;13.45;8.4;;;;;;;-1.61;56.4248;95015.92;;;;
2020/03/26 06:23:33;;;;;;;13.25;7.5;;;;;;;-1.2;56.44824;95023.66;;;;
2020/03/26 06:24:34;;;;;;;13.25;7.5;;;;;;;-1.2;56.44824;95023.66;;;;
2020/03/26 06:25:34;;;;;;;11.8;8.700001;;;;;;;-1.03;56.59668;95019.12;;;;
2020/03/26 06:26:35;;;;;;;11.8;8.700001;;;;;;;-1.03;56.59668;95019.12;;;;
2020/03/26 06:27:37;;;;;;;11.8;8.700001;;;;;;;-1.03;56.59668;95019.12;;;;
2020/03/26 06:28:46;;;;;;;11.8;8.700001;;;;;;;-1.03;56.59668;95019.12;;;;
2020/03/26 06:29:46;;;;;;;11.8;8.700001;;;;;;;-1.03;56.59668;95019.12;;;;
2020/03/26 06:30:47;;;;;;;11.8;8.700001;;;;;;;-1.03;56.59668;95019.12;;;;
2020/03/26 06:31:48;;;;;;;11.8;8.700001;;;;;;;-1.03;56.59668;95019.12;;;;
2020/03/26 06:32:49;;;;;;;11.8;8.700001;;;;;;;-1.03;56.59668;95019.12;;;;
2020/03/26 06:33:52;;;;;;;11.8;8.700001;;;;;;;-1.03;56.59668;95019.12;;;;
2020/03/26 06:34:56;;;;;;;11.8;8.700001;;;;;;;-1.03;56.59668;95019.12;;;;
2020/03/26 06:35:56;;;;;;;11.15;7.950001;;;;;;;-0.48;56.5752;95018.08;;;;
2020/03/26 06:36:56;;;;;;;11.15;7.950001;;;;;;;-0.48;56.5752;95018.08;;;;
2020/03/26 06:37:57;;;;;;;11.15;7.950001;;;;;;;-0.48;56.5752;95018.08;;;;
2020/03/26 06:39:03;;;;;;;11.15;8.75;;;;;;;-0.25;57.06641;95011.38;;;;
2020/03/26 06:40:09;;;;;;;11.15;8.75;;;;;;;-0.25;57.06641;95011.38;;;;
2020/03/26 06:41:12;;;;;;;13.05;10.2;;;;;;;0.06;57.09766;95014.86;;;;
2020/03/26 06:42:12;;;;;;;13.05;10.2;;;;;;;0.06;57.09766;95014.86;;;;
2020/03/26 06:43:17;;;;;;;13.05;10.2;;;;;;;0.06;57.09766;95014.86;;;;
2020/03/26 06:44:19;;;;;;;12.05;9.550001;;;;;;;0.32;57.20703;95021.84;;;;
2020/03/26 06:45:21;;;;;;;12.05;9.550001;;;;;;;0.32;57.20703;95021.84;;;;
2020/03/26 06:46:25;;;;;;;12.05;9.550001;;;;;;;0.32;57.20703;95021.84;;;;
2020/03/26 06:47:26;;;;;;;12.05;9.550001;;;;;;;0.32;57.20703;95021.84;;;;
2020/03/26 06:48:30;;;;;;;12.05;9.550001;;;;;;;0.32;57.20703;95021.84;;;;
2020/03/26 06:49:31;;;;;;;12.05;9.550001;;;;;;;0.32;57.20703;95021.84;;;;
2020/03/26 06:50:32;;;;;;;12.05;9.550001;;;;;;;0.32;57.20703;95021.84;;;;
2020/03/26 06:51:32;;;;;;;12.05;9.550001;;;;;;;0.32;57.20703;95021.84;;;;
2020/03/26 06:52:33;;;;;;;12.05;9.550001;;;;;;;0.32;57.20703;95021.84;;;;
2020/03/26 06:53:34;;;;;;;12.05;9.550001;;;;;;;0.32;57.20703;95021.84;;;;
2020/03/26 06:54:35;;;;;;;12.3;9.450001;;;;;;;0.83;56.23535;95036.52;;;;
2020/03/26 06:55:43;;;;;;;12.3;9.450001;;;;;;;0.83;56.23535;95036.52;;;;
2020/03/26 06:56:44;;;;;;;12.3;9.450001;;;;;;;0.83;56.23535;95036.52;;;;
2020/03/26 06:57:46;;;;;;;12.25;9.75;;;;;;;0.92;56.49902;95043.4;;;;
2020/03/26 06:58:46;;;;;;;12.25;9.75;;;;;;;0.92;56.49902;95043.4;;;;
2020/03/26 06:59:47;;;;;;;12.25;9.75;;;;;;;0.92;56.49902;95043.4;;;;
2020/03/26 07:00:48;;;;;;;12.25;9.75;;;;;;;0.92;56.49902;95043.4;;;;
2020/03/26 07:01:48;;;;;;;12.25;9.75;;;;;;;0.92;56.49902;95043.4;;;;
2020/03/26 07:03:47;;;;;;;12.25;9.75;;;;;;;0.92;56.49902;95043.4;;;;
2020/03/26 07:04:48;;;;;;;12.25;9.75;;;;;;;0.92;56.49902;95043.4;;;;
2020/03/26 07:05:49;;;;;;;12.25;9.75;;;;;;;0.92;56.49902;95043.4;;;;
2020/03/26 07:06:50;;;;;;;12.25;9.75;;;;;;;0.92;56.49902;95043.4;;;;
2020/03/26 07:07:52;;;;;;;14.3;9.649999;;;;;;;0.9;56.46484;95054.3;;;;
2020/03/26 07:08:53;;;;;;;14.3;9.649999;;;;;;;0.9;56.46484;95054.3;;;;
2020/03/26 07:09:57;;;;;;;14.3;9.649999;;;;;;;0.9;56.46484;95054.3;;;;
2020/03/26 07:10:58;;;;;;;12.7;10.45;;;;;;;0.93;56.97266;95054.44;;;;
2020/03/26 07:12:01;;;;;;;12.7;10.45;;;;;;;0.93;56.97266;95054.44;;;;
2020/03/26 07:13:03;;;;;;;12.9;10.65;;;;;;;1.04;57.17676;95071.26;;;;
2020/03/26 07:14:05;;;;;;;12.9;10.65;;;;;;;1.04;57.17676;95071.26;;;;
2020/03/26 07:15:06;;;;;;;12.9;10.65;;;;;;;1.04;57.17676;95071.26;;;;
2020/03/26 07:16:09;;;;;;;13.65;11;;;;;;;1.14;57.42188;95066.91;;;;
2020/03/26 07:17:20;;;;;;;13.65;11;;;;;;;1.14;57.42188;95066.91;;;;
2020/03/26 07:18:21;;;;;;;13.65;11;;;;;;;1.14;57.42188;95066.91;;;;
2020/03/26 07:19:23;;;;;;;13.65;11;;;;;;;1.14;57.42188;95066.91;;;;
2020/03/26 07:20:24;;;;;;;13.65;11;;;;;;;1.14;57.42188;95066.91;;;;
2020/03/26 07:21:27;;;;;;;13.65;11;;;;;;;1.14;57.42188;95066.91;;;;
2020/03/26 07:22:28;;;;;;;13.65;11;;;;;;;1.14;57.42188;95066.91;;;;
2020/03/26 07:23:30;;;;;;;13.65;11;;;;;;;1.14;57.42188;95066.91;;;;
2020/03/26 07:24:34;;;;;;;13.65;11;;;;;;;1.14;57.42188;95066.91;;;;
2020/03/26 07:25:36;;;;;;;13.65;11;;;;;;;1.14;57.42188;95066.91;;;;
2020/03/26 07:26:39;;;;;;;11.95;9.749999;;;;;;;1.4;56.63574;95069.09;;;;
2020/03/26 07:27:40;;;;;;;11.95;9.749999;;;;;;;1.4;56.63574;95069.09;;;;
2020/03/26 07:28:41;;;;;;;11.95;9.749999;;;;;;;1.4;56.63574;95069.09;;;;
2020/03/26 07:29:41;;;;;;;14.05;11.2;;;;;;;1.54;56.86621;95068.16;;;;
2020/03/26 07:30:42;;;;;;;14.05;11.2;;;;;;;1.54;56.86621;95068.16;;;;
2020/03/26 07:31:50;;;;;;;15;10.85;;;;;;;1.75;56.99805;95079.85;;;;
2020/03/26 07:32:50;;;;;;;15;10.85;;;;;;;1.75;56.99805;95079.85;;;;
2020/03/26 07:33:57;;;;;;;15;10.85;;;;;;;1.75;56.99805;95079.85;;;;
2020/03/26 07:35:02;;;;;;;14.2;11.2;;;;;;;1.94;56.93945;95069.45;;;;
2020/03/26 07:36:02;;;;;;;14.2;11.2;;;;;;;1.94;56.93945;95069.45;;;;
2020/03/26 07:37:05;;;;;;;13.3;11.15;;;;;;;2.14;56.81836;95062.87;;;;
2020/03/26 07:38:05;;;;;;;13.3;11.15;;;;;;;2.14;56.81836;95062.87;;;;
2020/03/26 07:39:11;;;;;;;13.3;11.15;;;;;;;2.14;56.81836;95062.87;;;;
2020/03/26 07:40:24;;;;;;;13.9;11.5;;;;;;;2.31;56.73535;95067.44;;;;
2020/03/26 07:41:24;;;;;;;13.9;11.5;;;;;;;2.31;56.73535;95067.44;;;;
2020/03/26 07:42:25;;;;;;;13.35;10.95;;;;;;;2.47;56.53516;95076.51;;;;
2020/03/26 07:43:29;;;;;;;13.35;10.95;;;;;;;2.47;56.53516;95076.51;;;;
2020/03/26 07:44:29;;;;;;;13.35;10.95;;;;;;;2.47;56.53516;95076.51;;;;
2020/03/26 07:45:30;;;;;;;13.35;10.95;;;;;;;2.47;56.53516;95076.51;;;;
2020/03/26 07:46:33;;;;;;;13.35;10.95;;;;;;;2.47;56.53516;95076.51;;;;
2020/03/26 07:47:33;;;;;;;13.35;10.95;;;;;;;2.47;56.53516;95076.51;;;;
2020/03/26 07:48:41;;;;;;;13.35;10.95;;;;;;;2.47;56.53516;95076.51;;;;
2020/03/26 07:49:47;;;;;;;13.35;10.95;;;;;;;2.47;56.53516;95076.51;;;;
2020/03/26 07:50:48;;;;;;;13.35;10.95;;;;;;;2.47;56.53516;95076.51;;;;
2020/03/26 07:51:48;;;;;;;13.35;10.95;;;;;;;2.47;56.53516;95076.51;;;;
2020/03/26 07:52:54;;;;;;;15.6;10.55;;;;;;;2.74;55.92578;95070.88;;;;
2020/03/26 07:53:55;;;;;;;15.6;10.55;;;;;;;2.74;55.92578;95070.88;;;;
2020/03/26 07:54:56;;;;;;;15.6;10.55;;;;;;;2.74;55.92578;95070.88;;;;
2020/03/26 07:55:57;;;;;;;13.1;11.4;;;;;;;2.86;56.14258;95078.27;;;;
2020/03/26 07:56:57;;;;;;;13.1;11.4;;;;;;;2.86;56.14258;95078.27;;;;
2020/03/26 07:58:02;;;;;;;11.85;10.45;;;;;;;3.01;56.23535;95069.64;;;;
2020/03/26 07:59:03;;;;;;;11.85;10.45;;;;;;;3.01;56.23535;95069.64;;;;
2020/03/26 08:00:06;;;;;;;11.85;10.45;;;;;;;3.01;56.23535;95069.64;;;;
2020/03/26 08:01:07;;;;;;;13;10.75;;;;;;;3.12;56.15625;95076.61;;;;
2020/03/26 08:02:08;;;;;;;13;10.75;;;;;;;3.12;56.15625;95076.61;;;;
2020/03/26 08:03:09;;;;;;;13.45;10.8;;;;;;;3.23;56.04297;95083.23;;;;
2020/03/26 08:04:10;;;;;;;13.45;10.8;;;;;;;3.23;56.04297;95083.23;;;;
2020/03/26 08:05:11;;;;;;;13.45;10.8;;;;;;;3.23;56.04297;95083.23;;;;
2020/03/26 08:06:14;;;;;;;13.45;10.8;;;;;;;3.23;56.04297;95083.23;;;;
2020/03/26 08:07:15;;;;;;;13.45;10.8;;;;;;;3.23;56.04297;95083.23;;;;
2020/03/26 08:08:16;;;;;;;13.45;10.8;;;;;;;3.23;56.04297;95083.23;;;;
2020/03/26 08:09:17;;;;;;;13.45;10.8;;;;;;;3.23;56.04297;95083.23;;;;
2020/03/26 08:10:31;;;;;;;13.45;10.8;;;;;;;3.23;56.04297;95083.23;;;;
2020/03/26 08:11:32;;;;;;;13.45;10.8;;;;;;;3.23;56.04297;95083.23;;;;
2020/03/26 08:12:32;;;;;;;13.45;10.8;;;;;;;3.23;56.04297;95083.23;;;;
2020/03/26 08:13:38;;;;;;;13.45;10.8;;;;;;;3.23;56.04297;95083.23;;;;
2020/03/26 08:14:40;;;;;;;12.15;10.4;;;;;;;3.19;55.63672;95087.22;;;;
2020/03/26 08:15:44;;;;;;;12.15;10.4;;;;;;;3.19;55.63672;95087.22;;;;
2020/03/26 08:16:48;;;;;;;13.65;10.85;;;;;;;3.24;55.78125;95084.37;;;;
2020/03/26 08:17:49;;;;;;;13.65;10.85;;;;;;;3.24;55.78125;95084.37;;;;
2020/03/26 08:18:51;;;;;;;13.65;10.85;;;;;;;3.24;55.78125;95084.37;;;;
2020/03/26 08:19:53;;;;;;;13.95;11.15;;;;;;;3.36;55.71094;95091.33;;;;
2020/03/26 08:20:54;;;;;;;13.95;11.15;;;;;;;3.36;55.71094;95091.33;;;;
2020/03/26 08:21:57;;;;;;;12.2;10.9;;;;;;;3.48;55.63184;95095.9;;;;
2020/03/26 08:23:00;;;;;;;12.2;10.9;;;;;;;3.48;55.63184;95095.9;;;;
2020/03/26 08:24:07;;;;;;;12.2;10.9;;;;;;;3.48;55.63184;95095.9;;;;
2020/03/26 08:25:11;;;;;;;13.1;11.25;;;;;;;3.58;55.65527;95103.03;;;;
2020/03/26 08:26:18;;;;;;;13.1;11.25;;;;;;;3.58;55.65527;95103.03;;;;
2020/03/26 08:27:19;;;;;;;13.35;10.7;;;;;;;3.67;55.69824;95103.69;;;;
2020/03/26 08:28:20;;;;;;;13.35;10.7;;;;;;;3.67;55.69824;95103.69;;;;
2020/03/26 08:29:20;;;;;;;13.35;10.7;;;;;;;3.67;55.69824;95103.69;;;;